Time;durP1;ratioP1;P1;durP2;ratioP2;P2;SDS_P1;SDS_P2;PMS_P1;PMS_P2;Temp;Humidity;BMP_temperature;BMP_pressure;BME280_temperature;BME280_humidity;BME280_pressure;Samples;Min_cycle;Max_cycle;Signal;HPM_P1;HPM_P2
2023/05/15 00:01:15;;;;;;;7.60;5.80;;;13.90;99.90;;;;;;5070866;28;21119;-81
2023/05/15 00:03:42;;;;;;;8.87;5.60;;;13.80;99.90;;;;;;5070583;28;20448;-81
2023/05/15 00:06:08;;;;;;;6.67;5.90;;;13.80;99.90;;;;;;5070833;28;20468;-81
2023/05/15 00:08:35;;;;;;;8.60;6.53;;;13.80;99.90;;;;;;5071012;28;20450;-81
2023/05/15 00:11:02;;;;;;;9.27;6.87;;;13.80;99.90;;;;;;5070599;28;20525;-81
2023/05/15 00:13:30;;;;;;;7.90;6.70;;;13.80;99.90;;;;;;5070862;28;20485;-80
2023/05/15 00:15:57;;;;;;;9.63;6.60;;;13.80;99.90;;;;;;5070105;28;20444;-81
2023/05/15 00:18:24;;;;;;;7.17;5.30;;;13.70;99.90;;;;;;5050079;28;20494;-82
2023/05/15 00:20:52;;;;;;;8.50;6.40;;;13.70;99.90;;;;;;5064771;28;20503;-80
2023/05/15 00:23:19;;;;;;;7.17;5.73;;;13.70;99.90;;;;;;5070552;28;20455;-81
2023/05/15 00:25:45;;;;;;;9.07;6.90;;;13.70;99.90;;;;;;5070319;28;20547;-80
2023/05/15 00:28:12;;;;;;;7.53;6.60;;;13.70;99.90;;;;;;5070007;28;20495;-81
2023/05/15 00:30:40;;;;;;;6.47;5.77;;;13.70;99.90;;;;;;5070609;28;20522;-81
2023/05/15 00:33:07;;;;;;;8.63;7.53;;;13.70;99.90;;;;;;5069917;28;20452;-81
2023/05/15 00:35:34;;;;;;;8.43;6.53;;;13.60;99.90;;;;;;5070997;28;20465;-81
2023/05/15 00:38:01;;;;;;;7.73;6.17;;;13.60;99.90;;;;;;5070661;28;20509;-81
2023/05/15 00:40:29;;;;;;;7.93;6.77;;;13.60;99.90;;;;;;5071230;28;20543;-81
2023/05/15 00:42:56;;;;;;;10.77;8.10;;;13.60;99.90;;;;;;5076482;28;20458;-81
2023/05/15 00:45:24;;;;;;;9.53;8.13;;;13.50;99.90;;;;;;5071696;28;20469;-81
2023/05/15 00:47:54;;;;;;;11.77;9.23;;;13.50;99.90;;;;;;5070387;28;20450;-82
2023/05/15 00:50:22;;;;;;;10.23;9.00;;;13.50;99.90;;;;;;5069628;28;20479;-81
2023/05/15 00:52:49;;;;;;;9.77;8.77;;;13.40;99.90;;;;;;5070007;28;20459;-81
2023/05/15 00:55:15;;;;;;;10.60;7.70;;;13.40;99.90;;;;;;5070298;28;20523;-80
2023/05/15 00:57:44;;;;;;;8.73;7.83;;;13.40;99.90;;;;;;5069757;28;20491;-81
2023/05/15 01:00:14;;;;;;;9.40;7.50;;;13.40;99.90;;;;;;5068904;28;20479;-82
2023/05/15 01:02:41;;;;;;;10.90;8.30;;;13.40;99.90;;;;;;5068652;28;20452;-81
2023/05/15 01:05:10;;;;;;;9.63;7.30;;;13.40;99.90;;;;;;5069579;28;20454;-81
2023/05/15 01:07:54;;;;;;;9.33;6.93;;;13.40;99.90;;;;;;5069123;28;20514;-79
2023/05/15 01:10:22;;;;;;;9.40;7.70;;;13.30;99.90;;;;;;5069226;28;20459;-81
2023/05/15 01:12:53;;;;;;;9.57;7.97;;;13.30;99.90;;;;;;5068526;28;20808;-81
2023/05/15 01:15:19;;;;;;;8.53;6.90;;;13.30;99.90;;;;;;5069362;28;20702;-82
2023/05/15 01:17:46;;;;;;;8.77;7.87;;;13.30;99.90;;;;;;5068893;28;20479;-81
2023/05/15 01:20:18;;;;;;;11.00;8.33;;;13.30;99.90;;;;;;5069734;28;20473;-81
2023/05/15 01:22:55;;;;;;;11.47;9.33;;;13.40;99.90;;;;;;5069402;28;20460;-81
2023/05/15 01:25:55;;;;;;;11.73;9.20;;;13.30;99.90;;;;;;5069773;28;20440;-81
2023/05/15 01:28:30;;;;;;;10.60;9.50;;;13.30;99.90;;;;;;5065280;28;20468;-82
2023/05/15 01:31:01;;;;;;;12.87;10.20;;;13.30;99.90;;;;;;5068422;28;20466;-81
2023/05/15 01:33:33;;;;;;;12.23;9.40;;;13.20;99.90;;;;;;5069073;28;20462;-82
2023/05/15 01:36:07;;;;;;;11.67;9.80;;;13.20;99.90;;;;;;5069938;28;20444;-81
2023/05/15 01:38:38;;;;;;;12.03;10.73;;;13.20;99.90;;;;;;5069180;28;20490;-81
2023/05/15 01:41:12;;;;;;;11.20;10.10;;;13.20;99.90;;;;;;5069059;28;20463;-82
2023/05/15 01:43:47;;;;;;;13.83;10.97;;;13.20;99.90;;;;;;5071548;28;20518;-79
2023/05/15 01:46:17;;;;;;;14.90;11.73;;;13.20;99.90;;;;;;5071311;28;20486;-79
2023/05/15 01:48:46;;;;;;;14.60;10.60;;;13.10;99.90;;;;;;5072159;28;20551;-79
2023/05/15 01:51:14;;;;;;;12.40;10.90;;;13.00;99.90;;;;;;5071721;28;20514;-78
2023/05/15 01:53:43;;;;;;;13.90;11.67;;;13.00;99.90;;;;;;5069684;28;20537;-80
2023/05/15 01:56:12;;;;;;;10.77;9.67;;;13.10;99.90;;;;;;5069660;28;20463;-80
2023/05/15 01:58:42;;;;;;;12.50;10.10;;;13.00;99.90;;;;;;5069095;28;20475;-81
2023/05/15 02:01:10;;;;;;;10.57;9.47;;;13.00;99.90;;;;;;5069455;28;20444;-81
2023/05/15 02:03:39;;;;;;;12.80;10.40;;;13.00;99.90;;;;;;5068776;28;20459;-80
2023/05/15 02:06:07;;;;;;;12.30;10.83;;;12.90;99.90;;;;;;5070089;28;20504;-83
2023/05/15 02:08:35;;;;;;;14.37;11.47;;;12.90;99.90;;;;;;5068717;28;20514;-80
2023/05/15 02:11:03;;;;;;;14.87;10.73;;;12.90;99.90;;;;;;5068548;28;20514;-80
2023/05/15 02:13:31;;;;;;;12.90;11.60;;;12.90;99.90;;;;;;5069335;28;20547;-80
2023/05/15 02:15:59;;;;;;;12.87;11.47;;;12.90;99.90;;;;;;5068763;28;20434;-81
2023/05/15 02:18:27;;;;;;;16.30;13.10;;;12.80;99.90;;;;;;5068843;28;20880;-81
2023/05/15 02:20:54;;;;;;;15.50;11.93;;;12.80;99.90;;;;;;5068739;28;20459;-83
2023/05/15 02:23:20;;;;;;;14.17;12.70;;;12.80;99.90;;;;;;5072212;28;20459;-81
2023/05/15 02:26:06;;;;;;;17.40;14.07;;;12.80;99.90;;;;;;5072140;28;20448;-81
2023/05/15 02:28:38;;;;;;;16.40;14.70;;;12.80;99.90;;;;;;5071384;28;20511;-82
2023/05/15 02:31:14;;;;;;;15.80;13.50;;;12.80;99.90;;;;;;5071166;28;20483;-80
2023/05/15 02:33:48;;;;;;;15.80;13.30;;;12.80;99.90;;;;;;5070538;28;20450;-82
2023/05/15 02:36:22;;;;;;;17.10;13.23;;;12.80;99.90;;;;;;5070148;28;20541;-82
2023/05/15 02:38:51;;;;;;;15.97;14.13;;;12.80;99.90;;;;;;5068712;28;20562;-81
2023/05/15 02:41:19;;;;;;;15.03;12.80;;;12.70;99.90;;;;;;5066279;28;20451;-81
2023/05/15 02:43:49;;;;;;;16.03;14.30;;;12.70;99.90;;;;;;5071415;28;20507;-81
2023/05/15 02:46:19;;;;;;;14.10;12.60;;;12.70;99.90;;;;;;5072042;28;20446;-82
2023/05/15 02:48:47;;;;;;;14.07;12.00;;;12.70;99.90;;;;;;5071843;28;20503;-81
2023/05/15 02:51:14;;;;;;;18.37;15.77;;;12.70;99.90;;;;;;5071200;28;20525;-81
2023/05/15 02:53:41;;;;;;;29.07;19.90;;;12.80;99.90;;;;;;5072670;28;20509;-79
2023/05/15 02:56:09;;;;;;;36.80;23.97;;;12.90;99.90;;;;;;5075796;28;20448;-83
2023/05/15 02:58:36;;;;;;;37.17;27.87;;;13.10;99.90;;;;;;5071411;28;21083;-82
2023/05/15 03:01:03;;;;;;;37.37;22.50;;;13.20;99.90;;;;;;5070686;28;20489;-83
2023/05/15 03:03:31;;;;;;;35.70;25.13;;;13.40;99.90;;;;;;5070875;28;20505;-82
2023/05/15 03:05:59;;;;;;;48.17;29.10;;;13.50;99.90;;;;;;5070640;28;20534;-81
2023/05/15 03:08:26;;;;;;;47.70;29.33;;;13.60;99.90;;;;;;5071378;28;20450;-83
2023/05/15 03:10:53;;;;;;;49.17;27.37;;;13.80;99.90;;;;;;5070461;28;20522;-82
2023/05/15 03:13:19;;;;;;;63.10;33.60;;;14.00;99.90;;;;;;5070582;28;20481;-83
2023/05/15 03:15:46;;;;;;;61.60;33.37;;;14.00;99.90;;;;;;5070452;28;20523;-82
2023/05/15 03:18:13;;;;;;;56.40;32.63;;;14.10;99.90;;;;;;5071035;28;20543;-83
2023/05/15 03:20:42;;;;;;;60.00;34.77;;;14.20;99.90;;;;;;5069976;28;20471;-81
2023/05/15 03:23:09;;;;;;;61.30;35.17;;;14.30;99.90;;;;;;5069567;28;20542;-82
2023/05/15 03:25:36;;;;;;;53.13;34.90;;;14.40;99.90;;;;;;5070753;28;20527;-81
2023/05/15 03:28:02;;;;;;;54.50;34.33;;;14.40;99.90;;;;;;5069879;28;20966;-81
2023/05/15 03:30:29;;;;;;;54.87;36.10;;;14.50;99.90;;;;;;5069461;28;20544;-81
2023/05/15 03:32:56;;;;;;;56.40;36.20;;;14.50;99.90;;;;;;5069070;28;20452;-80
2023/05/15 03:35:24;;;;;;;64.03;36.63;;;14.60;99.90;;;;;;5069941;28;20451;-80
2023/05/15 03:37:52;;;;;;;60.13;38.10;;;14.60;99.90;;;;;;5069677;28;20487;-81
2023/05/15 03:40:19;;;;;;;51.00;34.50;;;14.70;99.90;;;;;;5060824;28;20562;-81
2023/05/15 03:42:46;;;;;;;56.53;37.03;;;14.70;99.90;;;;;;5058669;28;21032;-81
2023/05/15 03:45:13;;;;;;;52.37;33.87;;;14.80;99.90;;;;;;5069214;28;20475;-81
2023/05/15 03:47:41;;;;;;;74.73;43.70;;;14.80;99.90;;;;;;5069254;28;20508;-82
2023/05/15 03:50:09;;;;;;;63.00;41.57;;;14.80;99.90;;;;;;5088501;22;20477;-83
2023/05/15 03:52:35;;;;;;;82.90;46.43;;;14.80;99.90;;;;;;5077539;28;20451;-82
2023/05/15 03:55:06;;;;;;;71.17;43.70;;;14.80;99.90;;;;;;5077528;28;20467;-83
2023/05/15 03:57:34;;;;;;;66.97;45.03;;;14.90;99.90;;;;;;5077758;28;20464;-84
2023/05/15 04:00:02;;;;;;;73.67;45.50;;;14.70;99.90;;;;;;5075852;28;20532;-82
2023/05/15 04:02:29;;;;;;;78.17;48.50;;;14.80;99.90;;;;;;5071201;28;20462;-81
2023/05/15 04:04:56;;;;;;;88.43;50.90;;;14.80;99.90;;;;;;5065090;28;20500;-81
2023/05/15 04:07:23;;;;;;;83.20;46.97;;;14.80;99.90;;;;;;5046375;28;20527;-81
2023/05/15 04:09:50;;;;;;;75.00;45.70;;;14.60;99.90;;;;;;5054308;28;20483;-79
2023/05/15 04:12:18;;;;;;;69.47;42.07;;;14.70;99.90;;;;;;5057639;28;20513;-80
2023/05/15 04:14:45;;;;;;;67.40;42.63;;;14.70;99.90;;;;;;5059781;28;20479;-81
2023/05/15 04:17:11;;;;;;;79.03;45.53;;;14.80;99.90;;;;;;5059794;28;20548;-82
2023/05/15 04:19:39;;;;;;;71.80;44.90;;;14.80;99.90;;;;;;5057350;28;20491;-80
2023/05/15 04:22:06;;;;;;;65.70;43.80;;;14.80;99.90;;;;;;5053761;28;20488;-81
2023/05/15 04:24:33;;;;;;;65.57;40.67;;;14.80;99.90;;;;;;5064376;28;20834;-81
2023/05/15 04:26:59;;;;;;;82.47;46.40;;;14.90;99.90;;;;;;5056146;28;20547;-80
2023/05/15 04:29:27;;;;;;;72.20;44.20;;;14.80;99.90;;;;;;5058033;28;20444;-80
2023/05/15 04:31:54;;;;;;;75.27;45.50;;;14.80;99.90;;;;;;5054022;28;20547;-80
2023/05/15 04:34:21;;;;;;;76.37;48.70;;;14.80;99.90;;;;;;5056528;28;20547;-80
2023/05/15 04:36:48;;;;;;;85.53;45.27;;;14.70;99.90;;;;;;5040301;28;20831;-80
2023/05/15 04:39:15;;;;;;;81.40;48.00;;;14.80;99.90;;;;;;5056210;28;20494;-80
2023/05/15 04:41:42;;;;;;;72.83;46.90;;;14.80;99.90;;;;;;5042530;28;20483;-80
2023/05/15 04:44:09;;;;;;;75.50;47.33;;;14.80;99.90;;;;;;5040003;28;20818;-80
2023/05/15 04:46:38;;;;;;;82.67;50.07;;;14.70;99.90;;;;;;5059497;28;20462;-79
2023/05/15 04:49:05;;;;;;;78.10;45.37;;;14.80;99.90;;;;;;5059160;28;20501;-79
2023/05/15 04:51:32;;;;;;;76.97;48.50;;;14.80;99.90;;;;;;5052346;28;20479;-81
2023/05/15 04:53:59;;;;;;;80.03;49.30;;;14.90;99.90;;;;;;5054623;28;20969;-81
2023/05/15 04:56:26;;;;;;;84.33;49.43;;;14.80;99.90;;;;;;5038784;28;20587;-80
2023/05/15 04:58:52;;;;;;;85.53;50.23;;;14.80;99.90;;;;;;5037614;28;20492;-80
2023/05/15 05:01:19;;;;;;;74.60;49.30;;;14.80;99.90;;;;;;5053178;28;20473;-80
2023/05/15 05:03:47;;;;;;;74.03;46.90;;;14.80;99.90;;;;;;5055903;28;20461;-82
2023/05/15 05:06:14;;;;;;;76.87;47.50;;;14.90;99.90;;;;;;5041501;28;20456;-79
2023/05/15 05:08:43;;;;;;;77.40;48.13;;;14.80;99.90;;;;;;5031521;28;21153;-79
2023/05/15 05:11:10;;;;;;;72.07;46.27;;;14.90;99.90;;;;;;5045144;28;20484;-80
2023/05/15 05:13:37;;;;;;;77.43;48.43;;;14.90;99.90;;;;;;5062351;28;20518;-79
2023/05/15 05:16:04;;;;;;;76.40;51.10;;;15.00;99.90;;;;;;5057171;28;20527;-79
2023/05/15 05:18:31;;;;;;;72.87;48.63;;;14.90;99.90;;;;;;5055305;28;20816;-80
2023/05/15 05:21:03;;;;;;;75.03;49.60;;;14.90;99.90;;;;;;5040054;28;20467;-80
2023/05/15 05:23:30;;;;;;;76.53;47.80;;;14.90;99.90;;;;;;5052631;28;20526;-80
2023/05/15 05:25:57;;;;;;;70.13;49.30;;;14.90;99.90;;;;;;5056972;28;20454;-79
2023/05/15 05:28:24;;;;;;;71.07;49.10;;;14.90;99.90;;;;;;5043604;28;20458;-81
2023/05/15 05:30:51;;;;;;;80.13;51.80;;;14.90;99.90;;;;;;5049118;28;20485;-78
2023/05/15 05:33:18;;;;;;;79.47;49.03;;;14.90;99.90;;;;;;5046523;28;20598;-80
2023/05/15 05:35:45;;;;;;;75.47;51.50;;;14.90;99.90;;;;;;5043792;28;20461;-80
2023/05/15 05:38:13;;;;;;;75.73;50.80;;;14.90;99.90;;;;;;5049265;28;20452;-79
2023/05/15 05:40:40;;;;;;;68.13;48.10;;;14.90;99.90;;;;;;5055596;28;20475;-81
2023/05/15 05:43:07;;;;;;;69.60;50.70;;;14.90;99.90;;;;;;5048692;28;20973;-81
2023/05/15 05:45:34;;;;;;;66.63;48.20;;;15.10;99.90;;;;;;5054838;28;20475;-79
2023/05/15 05:48:00;;;;;;;67.33;48.23;;;15.10;99.90;;;;;;5050155;28;20475;-79
2023/05/15 05:50:27;;;;;;;71.90;51.00;;;15.10;90.60;;;;;;5050670;28;20487;-81
2023/05/15 05:52:54;;;;;;;69.90;49.97;;;15.10;97.30;;;;;;5054365;28;20535;-82
2023/05/15 05:55:22;;;;;;;70.33;47.20;;;15.20;96.10;;;;;;5052768;28;20454;-82
2023/05/15 05:57:49;;;;;;;64.77;45.87;;;15.30;91.80;;;;;;5048715;28;20467;-80
2023/05/15 06:00:17;;;;;;;62.70;43.90;;;15.30;58.70;;;;;;5041796;28;20513;-84
2023/05/15 06:02:44;;;;;;;50.67;40.50;;;15.40;40.10;;;;;;5051500;28;20456;-81
2023/05/15 06:05:11;;;;;;;53.93;38.33;;;15.30;26.80;;;;;;5054424;28;20461;-83
2023/05/15 06:07:39;;;;;;;45.03;35.30;;;15.30;67.00;;;;;;5046678;28;20464;-80
2023/05/15 06:10:09;;;;;;;40.43;32.80;;;15.30;43.50;;;;;;5045111;28;20486;-84
2023/05/15 06:12:37;;;;;;;43.03;32.93;;;15.40;44.80;;;;;;5051287;28;20457;-81
2023/05/15 06:15:05;;;;;;;46.00;34.07;;;15.40;57.80;;;;;;5054196;28;20531;-80
2023/05/15 06:17:32;;;;;;;46.20;35.30;;;15.50;48.50;;;;;;5051280;28;20560;-82
2023/05/15 06:19:59;;;;;;;51.23;38.23;;;15.50;47.90;;;;;;5054366;28;20492;-82
2023/05/15 06:22:26;;;;;;;54.97;38.57;;;15.50;21.40;;;;;;5053450;28;20460;-80
2023/05/15 06:24:53;;;;;;;56.80;43.23;;;15.60;29.30;;;;;;5053083;28;20490;-79
2023/05/15 06:27:20;;;;;;;61.83;46.50;;;15.60;20.30;;;;;;5052546;28;20545;-83
2023/05/15 06:29:48;;;;;;;67.27;47.20;;;15.60;23.70;;;;;;5052018;28;20965;-80
2023/05/15 06:32:14;;;;;;;59.67;45.03;;;15.60;20.60;;;;;;5054523;28;20558;-80
2023/05/15 06:34:41;;;;;;;69.93;46.37;;;15.70;18.90;;;;;;5044488;28;20512;-86
2023/05/15 06:37:08;;;;;;;64.53;43.73;;;15.80;8.00;;;;;;5053060;28;20527;-84
2023/05/15 06:39:35;;;;;;;66.50;46.50;;;15.80;10.50;;;;;;5048313;28;20567;-82
2023/05/15 06:42:02;;;;;;;65.97;47.77;;;15.80;1.00;;;;;;5057678;28;20456;-80
2023/05/15 06:44:30;;;;;;;59.57;43.43;;;15.70;1.00;;;;;;5040014;28;20456;-83
2023/05/15 06:46:59;;;;;;;61.83;44.83;;;15.90;10.60;;;;;;5038885;28;20470;-82
2023/05/15 06:49:27;;;;;;;67.90;49.07;;;15.90;2.40;;;;;;5049017;28;20455;-83
2023/05/15 06:51:55;;;;;;;66.73;45.83;;;16.00;1.00;;;;;;5047629;28;20459;-84
2023/05/15 06:54:21;;;;;;;63.40;44.57;;;16.20;1.00;;;;;;5052306;28;20555;-84
2023/05/15 06:56:48;;;;;;;71.80;46.93;;;16.20;1.00;;;;;;5047527;28;20476;-86
2023/05/15 06:59:15;;;;;;;68.47;45.23;;;16.40;1.00;;;;;;5049939;28;20498;-82
2023/05/15 07:01:42;;;;;;;68.60;46.30;;;16.40;1.00;;;;;;5047949;28;20471;-86
2023/05/15 07:04:10;;;;;;;57.90;42.10;;;16.60;1.00;;;;;;5055879;28;20910;-82
2023/05/15 07:06:37;;;;;;;57.53;43.03;;;16.70;1.00;;;;;;5057008;28;21215;-84
2023/05/15 07:09:05;;;;;;;64.73;44.43;;;16.70;1.00;;;;;;5045401;28;20941;-83
2023/05/15 07:11:32;;;;;;;63.70;43.67;;;16.40;1.00;;;;;;5056220;28;20479;-83
2023/05/15 07:13:59;;;;;;;58.33;40.40;;;16.40;1.00;;;;;;5037868;28;20462;-83
2023/05/15 07:16:26;;;;;;;55.73;40.07;;;16.40;1.00;;;;;;5043595;28;20479;-82
2023/05/15 07:18:53;;;;;;;58.23;41.83;;;16.30;1.00;;;;;;5053814;28;20579;-81
2023/05/15 07:21:21;;;;;;;56.40;40.90;;;16.40;1.00;;;;;;5060293;28;20508;-84
2023/05/15 07:23:48;;;;;;;54.90;39.37;;;16.40;1.00;;;;;;5051427;28;21025;-85
2023/05/15 07:26:15;;;;;;;51.13;40.43;;;16.50;1.00;;;;;;5053384;28;20529;-83
2023/05/15 07:28:42;;;;;;;56.87;39.17;;;16.50;1.00;;;;;;5058664;28;20437;-82
2023/05/15 07:31:08;;;;;;;48.13;38.93;;;16.30;1.00;;;;;;5060588;28;20475;-84
2023/05/15 07:33:35;;;;;;;46.17;38.53;;;16.40;1.00;;;;;;5052067;28;22373;-83
2023/05/15 07:36:02;;;;;;;49.67;38.37;;;16.20;1.00;;;;;;5047597;28;20471;-82
2023/05/15 07:38:31;;;;;;;45.80;37.93;;;16.20;1.00;;;;;;5049366;28;20453;-82
2023/05/15 07:40:57;;;;;;;46.93;36.80;;;16.50;1.00;;;;;;5050080;28;20496;-84
2023/05/15 07:43:24;;;;;;;39.50;34.70;;;16.70;1.00;;;;;;5047716;28;20461;-81
2023/05/15 07:45:51;;;;;;;35.53;31.63;;;17.00;1.00;;;;;;5047921;28;20463;-82
2023/05/15 07:48:19;;;;;;;34.87;29.97;;;17.10;1.00;;;;;;5039105;28;20467;-83
2023/05/15 07:50:47;;;;;;;34.00;30.30;;;17.20;1.00;;;;;;5048670;28;20481;-85
2023/05/15 07:53:15;;;;;;;34.60;27.33;;;17.30;99.90;;;;;;5040107;28;20947;-84
2023/05/15 07:55:43;;;;;;;33.53;30.03;;;17.40;99.90;;;;;;5048683;28;20944;-84
2023/05/15 07:58:10;;;;;;;37.60;27.77;;;17.80;99.90;;;;;;5042629;28;20462;-82
2023/05/15 08:00:38;;;;;;;32.30;26.57;;;17.80;99.90;;;;;;5055497;28;20516;-85
2023/05/15 08:03:04;;;;;;;26.93;24.00;;;18.00;1.00;;;;;;5044591;28;20455;-81
2023/05/15 08:05:31;;;;;;;25.27;22.57;;;18.10;1.00;;;;;;5056720;28;20549;-81
2023/05/15 08:08:00;;;;;;;24.00;21.50;;;18.40;99.90;;;;;;5059293;28;20503;-83
2023/05/15 08:10:27;;;;;;;26.20;23.70;;;18.50;99.90;;;;;;5052677;28;20486;-82
2023/05/15 08:12:55;;;;;;;27.30;24.43;;;18.30;1.00;;;;;;5051400;28;20491;-83
2023/05/15 08:15:22;;;;;;;24.60;21.70;;;18.40;99.90;;;;;;5053725;28;20469;-83
2023/05/15 08:17:49;;;;;;;25.77;22.97;;;18.60;99.90;;;;;;5059842;28;20478;-83
2023/05/15 08:20:16;;;;;;;22.90;20.50;;;19.10;1.00;;;;;;5053885;28;20514;-84
2023/05/15 08:22:43;;;;;;;24.27;20.77;;;19.30;99.90;;;;;;5044448;28;20839;-85
2023/05/15 08:25:10;;;;;;;20.03;18.03;;;19.60;99.90;;;;;;5056369;28;20444;-84
2023/05/15 08:27:37;;;;;;;21.20;19.10;;;20.40;99.90;;;;;;5059015;28;20457;-84
2023/05/15 08:30:07;;;;;;;19.63;17.60;;;21.10;99.90;;;;;;5059230;28;20563;-85
2023/05/15 08:32:34;;;;;;;16.40;14.80;;;21.10;1.00;;;;;;5047161;28;20461;-84
2023/05/15 08:35:01;;;;;;;15.43;13.83;;;21.20;1.00;;;;;;5048145;28;20535;-84
2023/05/15 08:37:27;;;;;;;14.97;13.47;;;21.90;1.00;;;;;;5059711;28;20483;-82
2023/05/15 08:39:54;;;;;;;12.83;11.50;;;22.70;1.00;;;;;;5058633;28;20563;-85
2023/05/15 08:42:26;;;;;;;12.53;11.20;;;23.40;1.00;;;;;;5057178;28;20563;-83
2023/05/15 08:44:53;;;;;;;12.13;10.87;;;24.60;1.00;;;;;;5057965;28;20460;-84
2023/05/15 08:47:22;;;;;;;17.83;12.00;;;25.30;1.00;;;;;;5054395;28;20462;-83
2023/05/15 08:49:59;;;;;;;11.70;10.60;;;25.70;99.90;;;;;;5052101;28;20858;-84
2023/05/15 08:52:26;;;;;;;11.60;10.40;;;26.40;99.90;;;;;;5054085;28;20469;-84
2023/05/15 08:54:53;;;;;;;12.30;11.20;;;27.10;99.90;;;;;;5047762;28;20552;-83
2023/05/15 08:57:20;;;;;;;11.07;9.70;;;27.00;99.90;;;;;;5052188;28;20462;-84
2023/05/15 08:59:49;;;;;;;10.13;8.90;;;27.00;99.90;;;;;;5056148;28;20502;-83
2023/05/15 09:02:17;;;;;;;10.20;9.30;;;26.90;99.90;;;;;;5051067;28;20835;-83
2023/05/15 09:04:45;;;;;;;10.70;9.60;;;26.90;99.90;;;;;;5054408;28;20480;-83
2023/05/15 09:07:12;;;;;;;10.80;9.53;;;26.50;99.90;;;;;;5051228;28;20491;-85
2023/05/15 09:09:39;;;;;;;9.17;8.00;;;27.10;99.90;;;;;;5055087;28;20448;-84
2023/05/15 09:12:10;;;;;;;10.57;8.47;;;28.00;99.90;;;;;;5057322;28;20453;-84
2023/05/15 09:14:37;;;;;;;9.97;9.00;;;29.40;99.90;;;;;;5047071;28;20441;-84
2023/05/15 09:17:04;;;;;;;10.27;9.23;;;30.30;99.90;;;;;;5055371;28;20521;-85
2023/05/15 09:19:33;;;;;;;10.77;9.63;;;30.80;99.90;;;;;;5056556;28;20487;-85
2023/05/15 09:22:16;;;;;;;11.13;9.40;;;30.40;99.90;;;;;;5052658;28;20519;-84
2023/05/15 09:24:44;;;;;;;11.60;9.53;;;29.20;99.90;;;;;;5051639;28;20462;-86
2023/05/15 09:27:11;;;;;;;11.40;10.33;;;28.20;99.90;;;;;;5054337;28;20463;-86
2023/05/15 09:29:38;;;;;;;10.57;9.47;;;26.70;99.90;;;;;;5055363;28;21903;-85
2023/05/15 09:32:07;;;;;;;10.60;9.43;;;25.90;99.90;;;;;;5057135;28;20783;-85
2023/05/15 09:34:37;;;;;;;9.83;8.93;;;25.40;99.90;;;;;;5054596;28;20547;-84
2023/05/15 09:37:07;;;;;;;11.50;9.57;;;25.40;99.90;;;;;;5046197;28;20457;-84
2023/05/15 09:39:40;;;;;;;13.63;12.33;;;25.40;99.90;;;;;;5046974;28;20483;-86
2023/05/15 09:42:24;;;;;;;12.40;11.10;;;24.70;99.90;;;;;;5048467;28;20455;-84
2023/05/15 09:44:51;;;;;;;12.80;11.50;;;24.70;99.90;;;;;;5056226;28;21015;-83
2023/05/15 09:47:19;;;;;;;13.33;11.93;;;24.80;99.90;;;;;;5051659;28;20452;-85
2023/05/15 09:49:46;;;;;;;15.43;11.27;;;25.30;99.90;;;;;;5057125;28;20551;-84
2023/05/15 09:52:16;;;;;;;14.10;11.37;;;26.00;99.90;;;;;;5056056;28;20455;-83
2023/05/15 09:54:45;;;;;;;12.43;11.23;;;27.10;99.90;;;;;;5055308;28;20832;-84
2023/05/15 09:57:13;;;;;;;10.50;9.50;;;28.80;99.90;;;;;;5057577;28;20463;-85
2023/05/15 09:59:49;;;;;;;14.40;12.00;;;30.00;99.90;;;;;;5055444;28;20769;-85
2023/05/15 10:02:30;;;;;;;12.03;10.90;;;30.40;99.90;;;;;;5057520;28;21026;-85
2023/05/15 10:04:58;;;;;;;11.73;9.97;;;30.40;99.90;;;;;;5053653;28;20932;-85
2023/05/15 10:07:30;;;;;;;11.67;10.20;;;31.00;99.90;;;;;;5057920;28;20462;-85
2023/05/15 10:09:58;;;;;;;10.03;9.03;;;31.20;99.90;;;;;;5057447;28;20476;-84
2023/05/15 10:12:25;;;;;;;10.70;9.73;;;31.70;99.90;;;;;;5051913;28;20990;-84
2023/05/15 10:14:54;;;;;;;9.00;8.10;;;32.40;99.90;;;;;;5047764;28;20444;-86
2023/05/15 10:17:22;;;;;;;10.63;9.63;;;33.70;99.90;;;;;;5057652;28;20542;-84
2023/05/15 10:19:50;;;;;;;9.03;8.00;;;34.10;99.90;;;;;;5054621;28;20533;-84
2023/05/15 10:22:24;;;;;;;7.80;7.07;;;34.00;99.90;;;;;;5049989;28;20459;-86
2023/05/15 10:25:00;;;;;;;9.70;7.40;;;33.30;99.90;;;;;;5057085;28;20448;-84
2023/05/15 10:27:27;;;;;;;9.10;8.23;;;32.70;99.90;;;;;;5057752;28;20931;-84
2023/05/15 10:29:56;;;;;;;7.67;6.77;;;32.80;99.90;;;;;;5056374;28;20563;-83
2023/05/15 10:32:24;;;;;;;8.90;8.00;;;33.40;99.90;;;;;;5057763;28;20913;-84
2023/05/15 10:34:52;;;;;;;9.13;8.23;;;32.90;99.90;;;;;;5058072;28;20447;-85
2023/05/15 10:37:20;;;;;;;6.70;5.90;;;32.60;99.90;;;;;;5046269;28;20463;-85
2023/05/15 10:39:47;;;;;;;8.17;7.37;;;33.30;99.90;;;;;;5054220;28;21028;-85
2023/05/15 10:42:19;;;;;;;8.40;7.23;;;34.20;99.90;;;;;;5046065;28;20467;-83
2023/05/15 10:44:48;;;;;;;9.40;7.60;;;34.90;99.90;;;;;;5048990;28;20507;-84
2023/05/15 10:47:14;;;;;;;7.60;6.90;;;34.70;99.90;;;;;;5049496;28;20467;-84
2023/05/15 10:49:41;;;;;;;9.77;6.47;;;35.70;99.90;;;;;;5049181;28;20444;-84
2023/05/15 10:52:11;;;;;;;5.90;4.20;;;36.10;99.90;;;;;;5050775;28;20562;-84
2023/05/15 10:54:47;;;;;;;5.40;4.90;;;37.10;99.90;;;;;;5044938;28;20574;-83
2023/05/15 10:57:17;;;;;;;7.60;6.10;;;37.70;99.90;;;;;;5049854;28;20538;-83
2023/05/15 10:59:45;;;;;;;6.47;5.87;;;38.20;99.90;;;;;;5052154;28;20563;-85
2023/05/15 11:02:25;;;;;;;7.20;5.87;;;38.30;99.90;;;;;;5052062;28;20448;-85
2023/05/15 11:04:58;;;;;;;7.33;6.00;;;37.50;99.90;;;;;;5055675;28;20448;-85
2023/05/15 11:07:25;;;;;;;7.80;5.07;;;37.50;99.90;;;;;;5056704;28;20464;-84
2023/05/15 11:09:53;;;;;;;6.10;4.73;;;38.40;99.90;;;;;;5052496;28;20523;-84
2023/05/15 11:12:20;;;;;;;8.43;4.53;;;38.20;99.90;;;;;;5054825;28;20487;-84
2023/05/15 11:15:22;;;;;;;5.27;3.63;;;37.60;99.90;;;;;;5052234;28;20456;-86
2023/05/15 11:18:06;;;;;;;5.37;4.70;;;38.30;99.90;;;;;;4994018;28;20486;-84
2023/05/15 11:20:34;;;;;;;3.97;3.27;;;38.30;99.90;;;;;;4992602;28;20586;-86
2023/05/15 11:23:01;;;;;;;5.57;4.67;;;39.60;99.90;;;;;;5028617;28;20454;-85
2023/05/15 11:25:31;;;;;;;5.40;4.40;;;40.10;99.90;;;;;;5056483;28;21031;-84
2023/05/15 11:27:58;;;;;;;4.90;4.40;;;40.40;99.90;;;;;;5056218;28;20989;-87
2023/05/15 11:30:36;;;;;;;6.30;4.30;;;40.40;99.90;;;;;;5061845;28;20482;-85
2023/05/15 11:33:08;;;;;;;5.60;4.47;;;40.10;99.90;;;;;;5059932;28;20456;-85
2023/05/15 11:35:37;;;;;;;5.00;4.50;;;40.40;99.90;;;;;;5056103;28;20449;-84
2023/05/15 11:38:11;;;;;;;6.20;5.60;;;41.00;99.90;;;;;;5057140;28;20463;-84
2023/05/15 11:40:45;;;;;;;9.53;5.00;;;40.40;99.90;;;;;;5056918;28;20600;-83
2023/05/15 11:43:18;;;;;;;7.53;4.20;;;40.00;99.90;;;;;;5054112;28;20472;-85
2023/05/15 11:45:51;;;;;;;5.10;4.20;;;40.10;99.90;;;;;;5058085;28;20448;-86
2023/05/15 11:48:19;;;;;;;4.70;3.87;;;40.10;99.90;;;;;;5057258;28;20479;-85
2023/05/15 11:50:46;;;;;;;4.77;4.27;;;41.10;99.90;;;;;;5059002;28;20479;-86
2023/05/15 11:53:13;;;;;;;7.03;4.30;;;42.00;99.90;;;;;;5044254;28;20483;-87
2023/05/15 11:55:42;;;;;;;5.50;4.43;;;42.30;99.90;;;;;;5050132;28;20817;-86
2023/05/15 11:58:13;;;;;;;5.40;4.30;;;41.50;99.90;;;;;;5057227;28;20510;-87
2023/05/15 12:00:40;;;;;;;7.53;3.43;;;42.00;99.90;;;;;;5055915;28;20485;-88
2023/05/15 12:03:15;;;;;;;5.27;4.77;;;42.20;99.90;;;;;;5063096;28;20440;-84
2023/05/15 12:05:42;;;;;;;5.37;4.23;;;40.90;99.90;;;;;;5063420;28;20449;-85
2023/05/15 12:08:10;;;;;;;5.93;4.00;;;40.80;99.90;;;;;;5057010;28;21039;-87
2023/05/15 12:10:41;;;;;;;5.87;5.30;;;41.40;99.90;;;;;;5057391;28;20475;-86
2023/05/15 12:13:08;;;;;;;4.50;4.10;;;42.40;99.90;;;;;;5055177;28;20472;-85
2023/05/15 12:15:38;;;;;;;5.90;5.30;;;41.60;99.90;;;;;;5057839;28;20542;-84
2023/05/15 12:18:07;;;;;;;5.40;4.37;;;41.10;99.90;;;;;;5053508;28;20452;-85
2023/05/15 12:20:36;;;;;;;5.57;4.53;;;40.80;99.90;;;;;;5058022;28;20574;-85
2023/05/15 12:23:03;;;;;;;5.50;4.23;;;40.20;99.90;;;;;;5054374;28;20465;-84
2023/05/15 12:25:32;;;;;;;5.90;4.10;;;40.20;99.90;;;;;;5051107;28;20428;-84
2023/05/15 12:28:00;;;;;;;5.30;4.80;;;39.80;99.90;;;;;;5052686;28;20448;-86
2023/05/15 12:30:27;;;;;;;5.50;4.30;;;40.00;99.90;;;;;;5059056;28;20492;-85
2023/05/15 12:32:56;;;;;;;3.80;3.30;;;40.00;99.90;;;;;;5056400;28;20438;-85
2023/05/15 12:35:23;;;;;;;4.83;3.87;;;41.00;99.90;;;;;;5057221;28;20486;-84
2023/05/15 12:37:51;;;;;;;5.03;2.67;;;41.00;99.90;;;;;;5049016;28;20554;-84
2023/05/15 12:40:21;;;;;;;2.90;2.40;;;40.90;99.90;;;;;;5055410;28;20563;-85
2023/05/15 12:42:53;;;;;;;3.93;3.03;;;40.80;99.90;;;;;;5056363;28;20582;-84